Terminal Aerodrome Forecast
Issued by NWS Sioux Falls, SD

Home | Current Version | Previous Version | Text Only | Print | Product List | Glossary Off
Versions: 1 2 3 4 5 6 7 8 9 10 11 12 13 14 15 16 17 18

000
FTUS43 KFSD 241420 AAA
TAFHON
TAF AMD
KHON 241420Z 2414/2512 32016G24KT P6SM OVC035
     FM242200 35012KT P6SM SCT035 BKN070
     FM250200 03007KT P6SM OVC050
     FM250500 08009KT 3SM -SN OVC025
     FM250800 07014KT 1SM -SN BR OVC015=

USA.gov is the U.S. government's official web portal to all federal, state and local government web resources and services.